createdAt,value
2018-12-21T00:01:06.734Z,100742.89
2018-12-21T00:03:30.168Z,100841.17
2018-12-21T00:06:09.198Z,100742.34
2018-12-21T00:08:32.690Z,100834.69
2018-12-21T00:11:11.654Z,100724.89
2018-12-21T00:13:35.169Z,100828.98
2018-12-21T00:16:14.099Z,100740.94
2018-12-21T00:18:37.654Z,100846.44
2018-12-21T00:21:21.739Z,100743.28
2018-12-21T00:23:40.111Z,100835.84
2018-12-21T00:26:19.005Z,100736.67
2018-12-21T00:28:42.555Z,100829.67
2018-12-21T00:31:39.664Z,100733.11
2018-12-21T00:34:03.243Z,100817.31
2018-12-21T00:37:00.177Z,100720.95
2018-12-21T00:39:24.036Z,100814.66
2018-12-21T00:42:02.048Z,100714.01
2018-12-21T00:44:26.387Z,100807.88
2018-12-21T00:47:04.606Z,100697.20
2018-12-21T00:49:28.840Z,100791.53
2018-12-21T00:52:07.059Z,100691.13
2018-12-21T00:54:31.290Z,100787.13
2018-12-21T00:57:09.516Z,100685.18
2018-12-21T00:59:33.750Z,100773.95
2018-12-21T01:02:11.976Z,100676.06
2018-12-21T01:04:36.201Z,100770.70
2018-12-21T01:07:14.437Z,100676.23
2018-12-21T01:09:38.664Z,100763.56
2018-12-21T01:12:16.886Z,100667.91
2018-12-21T01:14:41.103Z,100774.84
2018-12-21T01:17:19.342Z,100681.77
2018-12-21T01:19:43.562Z,100786.03
2018-12-21T01:22:21.817Z,100686.31
2018-12-21T01:24:46.017Z,100788.69
2018-12-21T01:27:24.295Z,100693.45
2018-12-21T01:29:48.450Z,100785.19
2018-12-21T01:32:26.764Z,100696.41
2018-12-21T01:34:50.876Z,100787.92
2018-12-21T01:37:29.228Z,100691.13
2018-12-21T01:39:53.323Z,100786.09
2018-12-21T01:42:31.694Z,100692.30
2018-12-21T01:44:55.755Z,100784.58
2018-12-21T01:47:34.157Z,100693.22
2018-12-21T01:49:58.192Z,100788.89
2018-12-21T01:52:36.616Z,100683.73
2018-12-21T01:55:00.627Z,100775.77
2018-12-21T01:57:39.080Z,100668.44
2018-12-21T02:00:03.081Z,100753.48
2018-12-21T02:02:41.551Z,100657.73
2018-12-21T02:05:05.551Z,100742.78
2018-12-21T02:07:44.015Z,100652.44
2018-12-21T02:10:07.955Z,100749.37
2018-12-21T02:12:46.489Z,100652.69
2018-12-21T02:15:10.386Z,100757.77
2018-12-21T02:17:48.960Z,100658.80
2018-12-21T02:20:12.863Z,100761.23
2018-12-21T02:22:51.415Z,100659.33
2018-12-21T02:25:15.313Z,100754.03
2018-12-21T02:27:53.883Z,100657.73
2018-12-21T02:30:17.766Z,100763.51
2018-12-21T02:32:56.379Z,100659.48
2018-12-21T02:35:20.196Z,100751.07
2018-12-21T02:37:58.844Z,100643.50
2018-12-21T02:40:22.636Z,100738.39
2018-12-21T02:43:01.376Z,100637.67
2018-12-21T02:45:25.119Z,100729.05
2018-12-21T02:48:03.758Z,100620.13
2018-12-21T02:50:27.573Z,100717.14
2018-12-21T02:53:06.226Z,100604.36
2018-12-21T02:55:29.998Z,100692.36
2018-12-21T02:58:08.697Z,100592.32
2018-12-21T03:00:32.435Z,100684.31
2018-12-21T03:03:11.309Z,100588.92
2018-12-21T03:05:34.883Z,100678.03
2018-12-21T03:08:13.777Z,100580.31
2018-12-21T03:10:37.332Z,100671.69
2018-12-21T03:13:16.228Z,100565.68
2018-12-21T03:15:39.777Z,100665.70
2018-12-21T03:18:18.680Z,100555.41
2018-12-21T03:20:42.227Z,100644.01
2018-12-21T03:23:21.130Z,100556.63
2018-12-21T03:25:44.721Z,100647.98
2018-12-21T03:28:23.568Z,100539.09
2018-12-21T03:30:47.180Z,100633.81
2018-12-21T03:33:26.041Z,100520.12
2018-12-21T03:35:49.624Z,100627.91
2018-12-21T03:38:28.478Z,100511.52
2018-12-21T03:40:52.066Z,100603.00
2018-12-21T03:43:30.941Z,100494.18
2018-12-21T03:45:54.513Z,100580.90
2018-12-21T03:48:33.390Z,100475.91
2018-12-21T03:50:56.964Z,100564.91
2018-12-21T03:53:35.842Z,100463.04
2018-12-21T03:55:59.416Z,100554.25
2018-12-21T03:58:38.306Z,100461.58
2018-12-21T04:01:01.871Z,100563.58
2018-12-21T04:03:40.758Z,100454.61
2018-12-21T04:06:04.354Z,100557.78
2018-12-21T04:08:43.309Z,100450.52
2018-12-21T04:11:06.870Z,100554.96
2018-12-21T04:13:45.671Z,100445.34
2018-12-21T04:16:09.248Z,100544.25
2018-12-21T04:18:48.161Z,100448.62
2018-12-21T04:21:11.699Z,100545.87
2018-12-21T04:23:50.613Z,100434.09
2018-12-21T04:26:14.141Z,100535.76
2018-12-21T04:28:53.088Z,100429.88
2018-12-21T04:31:16.590Z,100530.55
2018-12-21T04:33:55.555Z,100431.04
2018-12-21T04:36:19.063Z,100526.11
2018-12-21T04:38:58.033Z,100417.12
2018-12-21T04:41:21.562Z,100522.52
2018-12-21T04:44:00.496Z,100411.45
2018-12-21T04:46:23.936Z,100504.58
2018-12-21T04:49:02.953Z,100398.29
2018-12-21T04:51:26.387Z,100495.78
2018-12-21T04:54:05.410Z,100388.09
2018-12-21T04:56:28.839Z,100490.80
2018-12-21T04:59:09.613Z,100371.17
2018-12-21T05:01:31.280Z,100481.36
2018-12-21T05:04:19.511Z,100378.61
2018-12-21T05:06:33.726Z,100480.23
2018-12-21T05:09:12.823Z,100373.90
2018-12-21T05:11:36.166Z,100467.95
2018-12-21T05:14:15.301Z,100367.84
2018-12-21T05:16:38.610Z,100467.34
2018-12-21T05:19:17.751Z,100367.86
2018-12-21T05:21:41.061Z,100458.30
2018-12-21T05:24:20.219Z,100353.84
2018-12-21T05:26:43.514Z,100449.59
2018-12-21T05:29:22.705Z,100356.64
2018-12-21T05:31:45.965Z,100446.16
2018-12-21T05:34:25.156Z,100344.76
2018-12-21T05:36:48.436Z,100443.87
2018-12-21T05:39:27.646Z,100337.74
2018-12-21T05:41:50.902Z,100443.41
2018-12-21T05:44:30.079Z,100337.80
2018-12-21T05:46:53.352Z,100436.53
2018-12-21T05:49:32.526Z,100331.50
2018-12-21T05:51:55.871Z,100430.75
2018-12-21T05:54:34.985Z,100326.30
2018-12-21T05:56:58.351Z,100412.05
2018-12-21T05:59:37.430Z,100307.28
2018-12-21T06:02:00.808Z,100404.87
2018-12-21T06:04:39.902Z,100294.81
2018-12-21T06:07:03.287Z,100392.87
2018-12-21T06:09:42.367Z,100279.55
2018-12-21T06:12:05.740Z,100381.08
2018-12-21T06:14:44.805Z,100270.16
2018-12-21T06:17:08.237Z,100371.28
2018-12-21T06:19:47.259Z,100265.88
2018-12-21T06:22:10.697Z,100365.14
2018-12-21T06:24:49.708Z,100248.83
2018-12-21T06:27:16.078Z,100349.61
2018-12-21T06:29:52.181Z,100230.50
2018-12-21T06:32:18.545Z,100315.58
2018-12-21T06:34:54.632Z,100202.61
2018-12-21T06:37:21.032Z,100304.33
2018-12-21T06:39:57.088Z,100204.05
2018-12-21T06:42:23.494Z,100291.91
2018-12-21T06:44:59.544Z,100185.33
2018-12-21T06:47:25.934Z,100281.39
2018-12-21T06:50:02.000Z,100174.17
2018-12-21T06:52:28.406Z,100278.05
2018-12-21T06:55:04.454Z,100172.58
2018-12-21T06:57:30.953Z,100265.63
2018-12-21T07:00:06.921Z,100172.15
2018-12-21T07:02:33.422Z,100267.84
2018-12-21T07:05:09.374Z,100168.91
2018-12-21T07:07:35.879Z,100257.48
2018-12-21T07:10:12.000Z,100160.05
2018-12-21T07:12:38.320Z,100253.50
2018-12-21T07:15:14.497Z,100150.47
2018-12-21T07:17:40.787Z,100251.69
2018-12-21T07:20:16.960Z,100150.95
2018-12-21T07:22:43.234Z,100248.97
2018-12-21T07:25:19.435Z,100145.32
2018-12-21T07:27:45.665Z,100241.73
2018-12-21T07:30:22.399Z,100143.30
2018-12-21T07:32:48.138Z,100241.61
2018-12-21T07:35:24.868Z,100145.14
2018-12-21T07:37:50.581Z,100229.43
2018-12-21T07:40:27.332Z,100138.53
2018-12-21T07:42:53.019Z,100230.23
2018-12-21T07:45:32.741Z,100143.98
2018-12-21T07:47:55.459Z,100235.06
2018-12-21T07:50:35.657Z,100135.39
2018-12-21T07:52:57.897Z,100233.29
2018-12-21T07:55:38.071Z,100128.06
2018-12-21T07:58:00.337Z,100210.98
2018-12-21T08:00:40.548Z,100116.73
2018-12-21T08:03:02.777Z,100201.81
2018-12-21T08:05:44.287Z,100099.21
2018-12-21T08:08:06.982Z,100202.13
2018-12-21T08:10:45.521Z,100095.61
2018-12-21T08:13:07.682Z,100197.45
2018-12-21T08:15:48.006Z,100099.99
2018-12-21T08:18:10.124Z,100186.16
2018-12-21T08:20:50.483Z,100090.34
2018-12-21T08:23:12.551Z,100178.75
2018-12-21T08:25:52.954Z,100074.49
2018-12-21T08:28:14.998Z,100164.69
2018-12-21T08:30:55.421Z,100064.98
2018-12-21T08:33:17.435Z,100155.56
2018-12-21T08:35:57.901Z,100058.09
2018-12-21T08:38:19.872Z,100158.49
2018-12-21T08:41:00.377Z,100047.73
2018-12-21T08:43:22.326Z,100148.39
2018-12-21T08:46:02.821Z,100040.03
2018-12-21T08:48:24.795Z,100140.86
2018-12-21T08:51:05.298Z,100040.32
2018-12-21T08:53:27.268Z,100138.16
2018-12-21T08:56:07.770Z,100034.04
2018-12-21T08:58:29.788Z,100126.67
2018-12-21T09:01:10.218Z,100030.04
2018-12-21T09:03:32.172Z,100128.25
2018-12-21T09:06:18.465Z,100026.66
2018-12-21T09:08:34.631Z,100106.86
2018-12-21T09:11:15.145Z,100004.19
2018-12-21T09:13:37.114Z,100091.28
2018-12-21T09:16:17.592Z,99986.37
2018-12-21T09:18:39.611Z,100089.09
2018-12-21T09:21:20.037Z,99982.02
2018-12-21T09:23:42.053Z,100083.35
2018-12-21T09:26:22.503Z,99970.36
2018-12-21T09:28:44.519Z,100067.16
2018-12-21T09:31:24.970Z,99956.30
2018-12-21T09:33:46.978Z,100061.84
2018-12-21T09:36:27.412Z,99944.61
2018-12-21T09:38:49.448Z,100041.97
2018-12-21T09:41:29.856Z,99941.05
2018-12-21T09:43:51.941Z,100048.52
2018-12-21T09:46:32.309Z,99925.96
2018-12-21T09:48:54.427Z,100036.48
2018-12-21T09:51:34.754Z,99913.75
2018-12-21T09:53:56.889Z,100007.70
2018-12-21T09:56:37.203Z,99895.89
2018-12-21T09:58:59.351Z,100000.03
2018-12-21T10:01:39.651Z,99895.54
2018-12-21T10:04:01.802Z,99988.41
2018-12-21T10:06:42.140Z,99880.67
2018-12-21T10:09:04.249Z,99971.62
2018-12-21T10:11:44.604Z,99879.28
2018-12-21T10:14:06.703Z,99972.05
2018-12-21T10:16:47.074Z,99864.51
2018-12-21T10:19:09.143Z,99957.95
2018-12-21T10:21:49.538Z,99877.74
2018-12-21T10:24:18.452Z,99967.80
2018-12-21T10:26:51.998Z,99869.00
2018-12-21T10:29:14.045Z,99969.69
2018-12-21T10:31:54.456Z,99858.05
2018-12-21T10:34:16.500Z,99950.94
2018-12-21T10:36:56.929Z,99846.22
2018-12-21T10:39:18.935Z,99957.22
2018-12-21T10:41:59.403Z,99846.48
2018-12-21T10:44:21.376Z,99935.22
2018-12-21T10:47:01.879Z,99846.98
2018-12-21T10:49:23.860Z,99946.59
2018-12-21T10:52:04.348Z,99846.83
2018-12-21T10:54:26.902Z,99940.30
2018-12-21T10:57:06.819Z,99833.76
2018-12-21T10:59:28.754Z,99934.67
2018-12-21T11:02:09.282Z,99838.28
2018-12-21T11:04:31.240Z,99934.20
2018-12-21T11:07:11.763Z,99828.18
2018-12-21T11:09:33.679Z,99932.50
2018-12-21T11:12:14.242Z,99816.56
2018-12-21T11:14:36.134Z,99922.34
2018-12-21T11:17:16.708Z,99810.03
2018-12-21T11:19:38.586Z,99913.80
2018-12-21T11:22:19.353Z,99812.13
2018-12-21T11:24:41.026Z,99913.62
2018-12-21T11:27:21.802Z,99817.20
2018-12-21T11:29:43.470Z,99907.94
2018-12-21T11:32:24.289Z,99789.29
2018-12-21T11:34:45.989Z,99910.62
2018-12-21T11:37:26.760Z,99804.10
2018-12-21T11:39:48.393Z,99901.26
2018-12-21T11:42:29.230Z,99799.86
2018-12-21T11:44:50.863Z,99900.11
2018-12-21T11:47:31.686Z,99801.00
2018-12-21T11:49:53.366Z,99888.75
2018-12-21T11:52:34.155Z,99802.23
2018-12-21T11:54:55.832Z,99893.83
2018-12-21T11:57:36.602Z,99790.31
2018-12-21T11:59:58.289Z,99887.95
2018-12-21T12:02:39.055Z,99796.72
2018-12-21T12:05:03.065Z,99887.48
2018-12-21T12:07:41.508Z,99789.67
2018-12-21T12:10:03.264Z,99890.22
2018-12-21T12:12:43.973Z,99795.66
2018-12-21T12:15:05.719Z,99883.55
2018-12-21T12:17:46.418Z,99782.81
2018-12-21T12:20:08.185Z,99878.44
2018-12-21T12:22:48.872Z,99781.69
2018-12-21T12:25:10.665Z,99876.48
2018-12-21T12:27:51.318Z,99793.05
2018-12-21T12:30:13.100Z,99881.61
2018-12-21T12:32:53.755Z,99789.06
2018-12-21T12:35:15.551Z,99883.23
2018-12-21T12:37:56.209Z,99776.93
2018-12-21T12:40:18.011Z,99882.02
2018-12-21T12:42:58.745Z,99766.19
2018-12-21T12:45:20.456Z,99866.80
2018-12-21T12:48:01.104Z,99755.22
2018-12-21T12:50:22.998Z,99852.51
2018-12-21T12:53:03.549Z,99764.16
2018-12-21T12:55:25.467Z,99873.06
2018-12-21T12:58:06.012Z,99784.20
2018-12-21T13:00:27.897Z,99886.02
2018-12-21T13:03:08.471Z,99781.69
2018-12-21T13:05:30.336Z,99881.73
2018-12-21T13:08:10.940Z,99764.31
2018-12-21T13:10:32.772Z,99869.95
2018-12-21T13:13:13.388Z,99782.33
2018-12-21T13:15:35.248Z,99889.17
2018-12-21T13:18:15.865Z,99784.55
2018-12-21T13:20:37.689Z,99887.20
2018-12-21T13:23:18.337Z,99797.76
2018-12-21T13:25:40.129Z,99890.52
2018-12-21T13:28:20.800Z,99794.19
2018-12-21T13:30:42.607Z,99896.59
2018-12-21T13:33:23.257Z,99796.38
2018-12-21T13:35:45.064Z,99893.08
2018-12-21T13:38:25.710Z,99788.44
2018-12-21T13:40:47.516Z,99887.21
2018-12-21T13:43:28.180Z,99790.16
2018-12-21T13:45:49.980Z,99904.06
2018-12-21T13:48:30.629Z,99806.73
2018-12-21T13:50:52.429Z,99903.67
2018-12-21T13:53:33.184Z,99805.05
2018-12-21T13:55:54.874Z,99894.27
2018-12-21T13:58:35.661Z,99793.30
2018-12-21T14:00:57.309Z,99894.27
2018-12-21T14:03:38.111Z,99795.21
2018-12-21T14:05:59.763Z,99898.36
2018-12-21T14:08:40.578Z,99802.73
2018-12-21T14:11:02.318Z,99897.17
2018-12-21T14:13:43.161Z,99800.67
2018-12-21T14:16:04.712Z,99904.80
2018-12-21T14:18:45.638Z,99810.04
2018-12-21T14:21:07.145Z,99913.02
2018-12-21T14:23:48.112Z,99814.70
2018-12-21T14:26:09.587Z,99922.03
2018-12-21T14:28:50.587Z,99819.07
2018-12-21T14:31:12.052Z,99924.55
2018-12-21T14:33:53.049Z,99838.62
2018-12-21T14:36:14.504Z,99924.16
2018-12-21T14:38:55.506Z,99824.23
2018-12-21T14:41:16.954Z,99911.43
2018-12-21T14:43:57.969Z,99833.04
2018-12-21T14:46:19.442Z,99936.70
2018-12-21T14:49:00.424Z,99838.25
2018-12-21T14:51:21.903Z,99933.94
2018-12-21T14:54:02.865Z,99845.91
2018-12-21T14:56:24.373Z,99942.34
2018-12-21T14:59:05.317Z,99851.60
2018-12-21T15:01:26.830Z,99957.59
2018-12-21T15:04:07.768Z,99855.42
2018-12-21T15:06:29.295Z,99965.25
2018-12-21T15:09:10.224Z,99871.31
2018-12-21T15:11:31.799Z,99976.41
2018-12-21T15:14:12.672Z,99879.13
2018-12-21T15:16:34.397Z,99975.98
2018-12-21T15:19:15.110Z,99872.48
2018-12-21T15:21:36.829Z,99975.97
2018-12-21T15:24:17.558Z,99877.84
2018-12-21T15:26:39.296Z,99976.79
2018-12-21T15:29:19.999Z,99871.05
2018-12-21T15:31:41.745Z,99971.88
2018-12-21T15:34:22.455Z,99861.41
2018-12-21T15:36:44.201Z,99969.78
2018-12-21T15:39:24.950Z,99874.95
2018-12-21T15:41:46.654Z,99974.10
2018-12-21T15:44:27.388Z,99859.84
2018-12-21T15:46:49.136Z,99982.34
2018-12-21T15:49:29.854Z,99887.67
2018-12-21T15:51:51.614Z,99978.45
2018-12-21T15:54:32.324Z,99887.89
2018-12-21T15:56:54.052Z,99997.05
2018-12-21T15:59:34.804Z,99903.82
2018-12-21T16:01:56.495Z,100028.61
2018-12-21T16:04:37.253Z,99911.70
2018-12-21T16:06:58.948Z,100008.62
2018-12-21T16:09:39.724Z,99913.63
2018-12-21T16:12:01.393Z,100015.69
2018-12-21T16:14:42.178Z,99916.03
2018-12-21T16:17:03.835Z,100025.67
2018-12-21T16:19:44.642Z,99921.33
2018-12-21T16:22:06.276Z,100040.20
2018-12-21T16:24:47.096Z,99931.56
2018-12-21T16:27:08.719Z,100031.97
2018-12-21T16:29:49.553Z,99939.31
2018-12-21T16:32:11.172Z,100050.40
2018-12-21T16:34:52.005Z,99961.20
2018-12-21T16:37:13.603Z,100062.72
2018-12-21T16:39:54.459Z,99953.09
2018-12-21T16:42:16.082Z,100071.55
2018-12-21T16:44:56.919Z,99972.62
2018-12-21T16:47:18.550Z,100082.73
2018-12-21T16:49:59.384Z,99985.92
2018-12-21T16:52:21.001Z,100082.34
2018-12-21T16:55:01.844Z,99992.53
2018-12-21T16:57:23.470Z,100091.56
2018-12-21T17:00:04.382Z,99982.66
2018-12-21T17:02:25.952Z,100081.92
2018-12-21T17:05:06.776Z,99980.51
2018-12-21T17:07:28.409Z,100085.24
2018-12-21T17:10:09.246Z,99988.72
2018-12-21T17:12:30.881Z,100088.03
2018-12-21T17:15:11.732Z,99978.17
2018-12-21T17:17:33.375Z,100067.66
2018-12-21T17:20:14.165Z,99965.05
2018-12-21T17:22:35.971Z,100065.87
2018-12-21T17:25:16.614Z,99967.81
2018-12-21T17:27:38.419Z,100056.02
2018-12-21T17:30:19.170Z,99966.38
2018-12-21T17:32:40.872Z,100066.63
2018-12-21T17:35:21.513Z,99958.73
2018-12-21T17:37:43.358Z,100059.02
2018-12-21T17:40:23.956Z,99961.31
2018-12-21T17:42:45.854Z,100060.79
2018-12-21T17:45:26.410Z,99966.92
2018-12-21T17:47:48.317Z,100069.20
2018-12-21T17:50:28.873Z,99966.12
2018-12-21T17:52:50.770Z,100057.99
2018-12-21T17:55:31.332Z,99981.75
2018-12-21T17:57:53.235Z,100095.20
2018-12-21T18:00:33.781Z,99991.63
2018-12-21T18:03:15.353Z,100090.52
2018-12-21T18:05:36.246Z,99990.00
2018-12-21T18:08:17.839Z,100081.34
2018-12-21T18:10:38.717Z,99982.69
2018-12-21T18:13:20.293Z,100072.89
2018-12-21T18:15:41.183Z,99982.41
2018-12-21T18:18:25.262Z,100102.84
2018-12-21T18:20:43.645Z,99993.75
2018-12-21T18:23:25.211Z,100098.50
2018-12-21T18:25:46.135Z,99991.98
2018-12-21T18:28:27.661Z,100096.59
2018-12-21T18:30:48.616Z,100000.58
2018-12-21T18:33:30.131Z,100098.02
2018-12-21T18:35:51.090Z,99999.33
2018-12-21T18:38:32.581Z,100106.64
2018-12-21T18:40:53.546Z,100011.55
2018-12-21T18:43:35.051Z,100108.67
2018-12-21T18:45:56.028Z,100013.28
2018-12-21T18:48:37.491Z,100106.31
2018-12-21T18:51:01.066Z,100012.47
2018-12-21T18:53:39.946Z,100113.14
2018-12-21T18:56:03.529Z,100026.36
2018-12-21T18:58:42.388Z,100128.50
2018-12-21T19:01:06.017Z,100025.53
2018-12-21T19:03:44.839Z,100134.56
2018-12-21T19:06:08.487Z,100030.67
2018-12-21T19:08:47.297Z,100131.61
2018-12-21T19:11:10.968Z,100033.84
2018-12-21T19:13:49.744Z,100137.72
2018-12-21T19:16:13.452Z,100044.37
2018-12-21T19:18:52.184Z,100142.45
2018-12-21T19:21:15.924Z,100046.80
2018-12-21T19:23:54.639Z,100132.48
2018-12-21T19:26:18.390Z,100032.42
2018-12-21T19:28:57.100Z,100149.14
2018-12-21T19:31:20.871Z,100052.32
2018-12-21T19:33:59.544Z,100157.97
2018-12-21T19:36:23.343Z,100056.07
2018-12-21T19:39:02.006Z,100158.39
2018-12-21T19:41:25.844Z,100057.95
2018-12-21T19:44:04.483Z,100169.56
2018-12-21T19:46:28.279Z,100076.34
2018-12-21T19:49:06.966Z,100174.46
2018-12-21T19:51:30.730Z,100079.58
2018-12-21T19:54:09.430Z,100187.41
2018-12-21T19:56:33.179Z,100086.95
2018-12-21T19:59:11.903Z,100184.64
2018-12-21T20:01:35.635Z,100085.55
2018-12-21T20:04:14.369Z,100192.91
2018-12-21T20:06:38.084Z,100095.51
2018-12-21T20:09:16.898Z,100188.41
2018-12-21T20:11:40.543Z,100086.22
2018-12-21T20:14:19.421Z,100197.41
2018-12-21T20:16:43.005Z,100090.01
2018-12-21T20:19:21.884Z,100198.80
2018-12-21T20:21:45.470Z,100091.75
2018-12-21T20:24:24.339Z,100207.05
2018-12-21T20:26:47.934Z,100098.88
2018-12-21T20:29:26.798Z,100205.06
2018-12-21T20:31:50.403Z,100113.19
2018-12-21T20:34:29.307Z,100207.22
2018-12-21T20:36:52.845Z,100101.45
2018-12-21T20:39:31.776Z,100210.97
2018-12-21T20:41:55.299Z,100106.78
2018-12-21T20:44:34.257Z,100217.62
2018-12-21T20:46:57.776Z,100106.23
2018-12-21T20:49:36.718Z,100213.69
2018-12-21T20:52:00.210Z,100114.79
2018-12-21T20:54:39.173Z,100217.42
2018-12-21T20:57:02.663Z,100111.31
2018-12-21T20:59:41.766Z,100208.41
2018-12-21T21:02:05.137Z,100101.42
2018-12-21T21:04:44.236Z,100194.08
2018-12-21T21:07:07.604Z,100093.78
2018-12-21T21:09:46.691Z,100199.14
2018-12-21T21:12:10.091Z,100101.91
2018-12-21T21:14:49.173Z,100213.09
2018-12-21T21:17:12.613Z,100113.24
2018-12-21T21:19:51.636Z,100217.18
2018-12-21T21:22:15.048Z,100105.48
2018-12-21T21:24:54.122Z,100220.47
2018-12-21T21:27:17.514Z,100111.20
2018-12-21T21:29:58.732Z,100218.50
2018-12-21T21:32:19.984Z,100116.11
2018-12-21T21:34:59.020Z,100227.84
2018-12-21T21:37:22.452Z,100119.11
2018-12-21T21:40:01.479Z,100223.20
2018-12-21T21:42:24.923Z,100117.09
2018-12-21T21:45:03.942Z,100225.28
2018-12-21T21:47:27.376Z,100120.41
2018-12-21T21:50:06.377Z,100220.98
2018-12-21T21:52:29.835Z,100127.41
2018-12-21T21:55:08.863Z,100228.23
2018-12-21T21:57:39.147Z,100125.83
2018-12-21T22:00:11.333Z,100235.44
2018-12-21T22:02:34.804Z,100127.24
2018-12-21T22:05:13.763Z,100235.45
2018-12-21T22:07:37.248Z,100126.73
2018-12-21T22:10:16.249Z,100229.11
2018-12-21T22:12:39.715Z,100124.76
2018-12-21T22:15:18.708Z,100238.67
2018-12-21T22:17:42.193Z,100123.78
2018-12-21T22:20:21.174Z,100243.63
2018-12-21T22:22:44.671Z,100138.38
2018-12-21T22:25:23.619Z,100247.22
2018-12-21T22:27:48.131Z,100138.70
2018-12-21T22:30:26.051Z,100249.75
2018-12-21T22:32:49.630Z,100146.74
2018-12-21T22:35:28.653Z,100252.45
2018-12-21T22:37:52.101Z,100147.12
2018-12-21T22:40:31.116Z,100251.67
2018-12-21T22:42:54.560Z,100142.23
2018-12-21T22:45:33.567Z,100251.08
2018-12-21T22:47:57.038Z,100137.40
2018-12-21T22:50:36.036Z,100238.88
2018-12-21T22:52:59.491Z,100123.36
2018-12-21T22:55:38.505Z,100228.48
2018-12-21T22:58:01.949Z,100128.87
2018-12-21T23:00:40.955Z,100231.91
2018-12-21T23:03:04.425Z,100132.45
2018-12-21T23:05:43.452Z,100229.38
2018-12-21T23:08:06.864Z,100128.66
2018-12-21T23:10:45.909Z,100230.16
2018-12-21T23:13:09.320Z,100128.59
2018-12-21T23:15:48.866Z,100230.66
2018-12-21T23:18:11.786Z,100126.15
2018-12-21T23:20:51.224Z,100226.76
2018-12-21T23:23:14.233Z,100121.08
2018-12-21T23:25:53.689Z,100214.25
2018-12-21T23:28:16.690Z,100118.04
2018-12-21T23:30:56.121Z,100216.62
2018-12-21T23:33:19.136Z,100115.80
2018-12-21T23:35:58.584Z,100220.37
2018-12-21T23:38:21.594Z,100104.91
2018-12-21T23:41:01.033Z,100210.98
2018-12-21T23:43:24.048Z,100108.34
2018-12-21T23:46:03.509Z,100208.23
2018-12-21T23:48:26.519Z,100102.30
2018-12-21T23:51:07.479Z,100204.30
2018-12-21T23:53:28.990Z,100102.77
2018-12-21T23:56:12.037Z,100205.65
2018-12-21T23:58:31.434Z,100112.83
